createdAt,value
2022-11-21T00:00:49.109Z,97.6
2022-11-21T00:02:05.411Z,97.5
2022-11-21T00:03:20.713Z,97.4
2022-11-21T00:04:37.014Z,97.4
2022-11-21T00:05:53.302Z,97.3
2022-11-21T00:07:09.597Z,97.4
2022-11-21T00:08:25.890Z,97.4
2022-11-21T00:09:42.182Z,97.5
2022-11-21T00:10:58.485Z,97.6
2022-11-21T00:12:14.773Z,97.7
2022-11-21T00:13:31.070Z,97.6
2022-11-21T00:14:47.363Z,97.6
2022-11-21T00:16:03.659Z,97.5
2022-11-21T00:17:19.959Z,97.5
2022-11-21T00:18:36.250Z,97.5
2022-11-21T00:19:51.566Z,97.5
2022-11-21T00:21:07.860Z,97.4
2022-11-21T00:22:24.161Z,97.4
2022-11-21T00:23:40.450Z,97.4
2022-11-21T00:24:56.750Z,97.4
2022-11-21T00:26:13.049Z,97.5
2022-11-21T00:27:28.352Z,97.5
2022-11-21T00:28:44.654Z,97.7
2022-11-21T00:30:00.947Z,97.8
2022-11-21T00:31:17.237Z,97.8
2022-11-21T00:32:33.538Z,97.9
2022-11-21T00:33:49.837Z,98
2022-11-21T00:35:06.124Z,98.1
2022-11-21T00:36:22.427Z,98.4
2022-11-21T00:37:38.714Z,98.5
2022-11-21T00:38:55.024Z,98.7
2022-11-21T00:40:11.306Z,98.9
2022-11-21T00:41:27.607Z,98.9
2022-11-21T00:42:43.902Z,99
2022-11-21T00:43:59.205Z,99.1
2022-11-21T00:45:15.516Z,99.2
2022-11-21T00:46:31.801Z,99.3
2022-11-21T00:47:48.087Z,99.3
2022-11-21T00:49:04.390Z,99.3
2022-11-21T00:50:20.679Z,99.4
2022-11-21T00:51:36.987Z,99.4
2022-11-21T00:52:53.287Z,99.5
2022-11-21T00:54:09.577Z,99.5
2022-11-21T00:55:25.868Z,99.5
2022-11-21T00:56:42.152Z,99.7
2022-11-21T00:57:58.451Z,99.7
2022-11-21T00:59:14.754Z,99.7
2022-11-21T01:00:30.067Z,99.8
2022-11-21T01:01:46.363Z,99.8
2022-11-21T01:03:02.653Z,99.8
2022-11-21T01:04:18.950Z,99.9
2022-11-21T01:05:35.237Z,99.8
2022-11-21T01:06:51.534Z,99.8
2022-11-21T01:08:07.840Z,99.8
2022-11-21T01:09:24.132Z,99.8
2022-11-21T01:10:40.417Z,99.8
2022-11-21T01:11:56.721Z,99.8
2022-11-21T01:13:13.009Z,99.8
2022-11-21T01:14:29.309Z,99.7
2022-11-21T01:15:45.605Z,99.7
2022-11-21T01:17:00.907Z,99.7
2022-11-21T01:18:17.213Z,99.6
2022-11-21T01:19:33.500Z,99.5
2022-11-21T01:20:49.796Z,99.5
2022-11-21T01:22:06.094Z,99.5
2022-11-21T01:23:22.398Z,99.3
2022-11-21T01:24:38.685Z,99.3
2022-11-21T01:25:54.972Z,99.2
2022-11-21T01:27:11.265Z,99.3
2022-11-21T01:28:27.577Z,99.2
2022-11-21T01:29:43.861Z,99.2
2022-11-21T01:31:00.158Z,99.2
2022-11-21T01:32:16.448Z,99.3
2022-11-21T01:33:31.762Z,99.3
2022-11-21T01:34:48.066Z,99.3
2022-11-21T01:36:04.358Z,99.5
2022-11-21T01:37:20.653Z,99.5
2022-11-21T01:38:36.945Z,99.5
2022-11-21T01:39:53.247Z,99.6
2022-11-21T01:41:09.533Z,99.5
2022-11-21T01:42:25.825Z,99.6
2022-11-21T01:43:42.125Z,99.7
2022-11-21T01:44:58.411Z,99.7
2022-11-21T01:46:14.726Z,99.7
2022-11-21T01:47:31.003Z,99.8
2022-11-21T01:48:47.315Z,99.8
2022-11-21T01:50:02.619Z,99.8
2022-11-21T01:51:18.918Z,99.9
2022-11-21T01:52:35.213Z,99.9
2022-11-21T01:53:51.493Z,99.9
2022-11-21T01:55:07.806Z,99.9
2022-11-21T01:56:24.086Z,99.8
2022-11-21T01:57:40.378Z,99.9
2022-11-21T01:58:56.680Z,99.9
2022-11-21T02:00:12.977Z,99.8
2022-11-21T02:01:29.272Z,99.7
2022-11-21T02:02:45.572Z,99.7
2022-11-21T02:04:01.868Z,99.6
2022-11-21T02:05:18.147Z,99.6
2022-11-21T02:06:33.457Z,99.6
2022-11-21T02:07:49.766Z,99.5
2022-11-21T02:09:06.051Z,99.5
2022-11-21T02:10:22.351Z,99.5
2022-11-21T02:11:38.638Z,99.4
2022-11-21T02:12:54.938Z,99.4
2022-11-21T02:14:11.227Z,99.4
2022-11-21T02:15:27.526Z,99.4
2022-11-21T02:16:43.833Z,99.4
2022-11-21T02:18:00.123Z,99.5
2022-11-21T02:19:16.419Z,99.4
2022-11-21T02:20:32.714Z,99.4
2022-11-21T02:21:49.004Z,99.2
2022-11-21T02:23:04.314Z,99.1
2022-11-21T02:24:20.624Z,99
2022-11-21T02:25:36.900Z,99
2022-11-21T02:26:53.195Z,99
2022-11-21T02:28:09.495Z,99
2022-11-21T02:29:25.785Z,99.1
2022-11-21T02:30:42.095Z,99.2
2022-11-21T02:31:58.381Z,99.2
2022-11-21T02:33:14.672Z,99.2
2022-11-21T02:34:30.970Z,99.2
2022-11-21T02:35:47.270Z,99.2
2022-11-21T02:37:03.568Z,99.3
2022-11-21T02:38:19.860Z,99.4
2022-11-21T02:39:35.162Z,99.3
2022-11-21T02:40:51.462Z,99.3
2022-11-21T02:42:07.750Z,99.4
2022-11-21T02:43:24.063Z,99.3
2022-11-21T02:44:40.357Z,99.3
2022-11-21T02:45:56.638Z,99.1
2022-11-21T02:47:12.930Z,99
2022-11-21T02:48:29.233Z,99
2022-11-21T02:49:45.521Z,99
2022-11-21T02:51:01.817Z,99
2022-11-21T02:52:18.121Z,99.1
2022-11-21T02:53:34.418Z,99.2
2022-11-21T02:54:50.707Z,99.1
2022-11-21T02:56:06.017Z,99
2022-11-21T02:57:22.311Z,99
2022-11-21T02:58:38.602Z,99
2022-11-21T02:59:54.916Z,99.1
2022-11-21T03:01:11.207Z,99.2
2022-11-21T03:02:27.490Z,99.3
2022-11-21T03:03:43.783Z,99.2
2022-11-21T03:05:00.085Z,99.2
2022-11-21T03:06:16.370Z,99.2
2022-11-21T03:07:32.668Z,99.3
2022-11-21T03:08:48.963Z,99.4
2022-11-21T03:10:05.261Z,99.4
2022-11-21T03:11:21.556Z,99.5
2022-11-21T03:12:36.873Z,99.5
2022-11-21T03:13:53.164Z,99.5
2022-11-21T03:15:09.459Z,99.4
2022-11-21T03:16:25.751Z,99.4
2022-11-21T03:17:42.053Z,99.4
2022-11-21T03:18:58.350Z,99.5
2022-11-21T03:20:14.631Z,99.5
2022-11-21T03:21:30.927Z,99.5
2022-11-21T03:22:47.224Z,99.5
2022-11-21T03:24:03.522Z,99.5
2022-11-21T03:25:19.810Z,99.5
2022-11-21T03:26:36.119Z,99.5
2022-11-21T03:27:52.402Z,99.5
2022-11-21T03:29:07.721Z,99.5
2022-11-21T03:30:24.009Z,99.5
2022-11-21T03:31:40.311Z,99.5
2022-11-21T03:32:56.597Z,99.5
2022-11-21T03:34:12.893Z,99.6
2022-11-21T03:35:29.189Z,99.6
2022-11-21T03:36:45.484Z,99.6
2022-11-21T03:38:01.792Z,99.5
2022-11-21T03:39:18.077Z,99.6
2022-11-21T03:40:34.382Z,99.6
2022-11-21T03:41:50.672Z,99.6
2022-11-21T03:43:06.972Z,99.6
2022-11-21T03:44:23.265Z,99.6
2022-11-21T03:45:38.563Z,99.6
2022-11-21T03:46:54.867Z,99.5
2022-11-21T03:48:11.163Z,99.5
2022-11-21T03:49:27.465Z,99.6
2022-11-21T03:50:43.753Z,99.6
2022-11-21T03:52:00.042Z,99.6
2022-11-21T03:53:16.349Z,99.6
2022-11-21T03:54:32.629Z,99.6
2022-11-21T03:55:48.927Z,99.6
2022-11-21T03:57:05.228Z,99.5
2022-11-21T03:58:21.513Z,99.5
2022-11-21T03:59:37.815Z,99.3
2022-11-21T04:00:54.121Z,99.3
2022-11-21T04:02:09.417Z,99.3
2022-11-21T04:03:25.726Z,99.3
2022-11-21T04:04:42.023Z,99.2
2022-11-21T04:05:58.318Z,99.2
2022-11-21T04:07:14.602Z,99.2
2022-11-21T04:08:30.892Z,99.2
2022-11-21T04:09:47.186Z,99.2
2022-11-21T04:12:19.774Z,99.2
2022-11-21T04:13:36.080Z,99.2
2022-11-21T04:14:52.364Z,99.1
2022-11-21T04:16:08.661Z,99.2
2022-11-21T04:17:24.962Z,99.3
2022-11-21T04:18:40.282Z,99.2
2022-11-21T04:19:56.577Z,99.2
2022-11-21T04:21:12.856Z,99.2
2022-11-21T04:22:29.156Z,99.2
2022-11-21T04:23:45.446Z,99.3
2022-11-21T04:25:01.741Z,99.3
2022-11-21T04:26:18.040Z,99.3
2022-11-21T04:27:34.329Z,99.3
2022-11-21T04:28:50.634Z,99.3
2022-11-21T04:30:06.922Z,99.3
2022-11-21T04:31:23.231Z,99.4
2022-11-21T04:32:39.512Z,99.4
2022-11-21T04:33:55.806Z,99.4
2022-11-21T04:35:11.123Z,99.4
2022-11-21T04:36:27.418Z,99.3
2022-11-21T04:37:43.722Z,99.3
2022-11-21T04:39:00.000Z,99.2
2022-11-21T04:40:16.300Z,99.1
2022-11-21T04:41:32.595Z,98.8
2022-11-21T04:42:47.926Z,98.8
2022-11-21T04:44:04.211Z,98.8
2022-11-21T04:45:20.504Z,98.9
2022-11-21T04:46:36.810Z,99
2022-11-21T04:47:53.093Z,99.1
2022-11-21T04:49:09.389Z,99.1
2022-11-21T04:50:25.683Z,98.9
2022-11-21T04:51:41.984Z,98.9
2022-11-21T04:52:58.269Z,98.7
2022-11-21T04:54:14.568Z,98.5
2022-11-21T04:55:30.863Z,98.5
2022-11-21T04:56:47.162Z,98.4
2022-11-21T04:58:03.451Z,98.4
2022-11-21T04:59:18.761Z,98.5
2022-11-21T05:00:35.066Z,98.5
2022-11-21T05:03:07.645Z,98.6
2022-11-21T05:04:23.946Z,98.6
2022-11-21T05:05:40.233Z,98.5
2022-11-21T05:06:56.530Z,98.5
2022-11-21T05:08:12.832Z,98.5
2022-11-21T05:09:29.131Z,98.5
2022-11-21T05:10:45.411Z,98.6
2022-11-21T05:12:01.717Z,98.7
2022-11-21T05:13:18.006Z,98.7
2022-11-21T05:14:34.301Z,98.6
2022-11-21T05:15:49.609Z,98.7
2022-11-21T05:17:05.907Z,98.8
2022-11-21T05:18:22.200Z,98.9
2022-11-21T05:19:38.495Z,99
2022-11-21T05:20:54.790Z,99
2022-11-21T05:22:11.090Z,98.9
2022-11-21T05:23:27.393Z,98.7
2022-11-21T05:24:43.672Z,98.7
2022-11-21T05:25:59.974Z,98.8
2022-11-21T05:27:16.264Z,98.7
2022-11-21T05:28:32.565Z,98.6
2022-11-21T05:29:48.855Z,98.6
2022-11-21T05:31:05.151Z,98.6
2022-11-21T05:32:20.458Z,98.6
2022-11-21T05:33:36.768Z,98.7
2022-11-21T05:34:53.050Z,98.7
2022-11-21T05:36:09.351Z,98.8
2022-11-21T05:37:25.644Z,98.8
2022-11-21T05:38:41.942Z,98.6
2022-11-21T05:39:58.233Z,98.6
2022-11-21T05:41:14.535Z,98.6
2022-11-21T05:42:30.819Z,98.7
2022-11-21T05:43:47.111Z,98.7
2022-11-21T05:45:03.412Z,98.7
2022-11-21T05:46:19.710Z,98.4
2022-11-21T05:47:36.003Z,98.1
2022-11-21T05:48:51.326Z,98.1
2022-11-21T05:50:07.607Z,98.1
2022-11-21T05:51:23.900Z,98.3
2022-11-21T05:52:40.196Z,98.4
2022-11-21T05:53:56.490Z,98.7
2022-11-21T05:55:12.790Z,98.4
2022-11-21T05:56:29.079Z,98.2
2022-11-21T05:57:45.381Z,98.1
2022-11-21T05:59:01.670Z,98.1
2022-11-21T06:00:17.969Z,98.2
2022-11-21T06:01:34.261Z,98.4
2022-11-21T06:02:50.555Z,98.7
2022-11-21T06:04:06.848Z,98.8
2022-11-21T06:05:22.159Z,98.8
2022-11-21T06:06:38.406Z,98.8
2022-11-21T06:07:54.697Z,98.8
2022-11-21T06:09:10.957Z,99
2022-11-21T06:10:27.209Z,99.1
2022-11-21T06:11:43.432Z,99.1
2022-11-21T06:12:59.730Z,99.1
2022-11-21T06:14:15.983Z,99.2
2022-11-21T06:15:32.238Z,99.2
2022-11-21T06:16:48.459Z,99.1
2022-11-21T06:18:04.718Z,99
2022-11-21T06:19:20.956Z,98.8
2022-11-21T06:20:37.189Z,99
2022-11-21T06:21:52.456Z,99.1
2022-11-21T06:23:08.680Z,99.1
2022-11-21T06:24:24.926Z,98.8
2022-11-21T06:25:41.164Z,98.8
2022-11-21T06:26:57.424Z,98.8
2022-11-21T06:28:13.652Z,99
2022-11-21T06:29:29.890Z,99.1
2022-11-21T06:30:46.130Z,99.1
2022-11-21T06:32:02.375Z,99.1
2022-11-21T06:33:18.618Z,99.2
2022-11-21T06:34:34.869Z,99.2
2022-11-21T06:35:51.094Z,99.2
2022-11-21T06:37:07.336Z,99.2
2022-11-21T06:38:22.595Z,99.3
2022-11-21T06:39:38.833Z,99.2
2022-11-21T06:40:55.077Z,99.3
2022-11-21T06:42:11.317Z,99.3
2022-11-21T06:43:27.573Z,99.3
2022-11-21T06:44:43.794Z,99.3
2022-11-21T06:46:00.046Z,99.4
2022-11-21T06:47:16.284Z,99.5
2022-11-21T06:48:32.537Z,99.5
2022-11-21T06:49:48.762Z,99.5
2022-11-21T06:51:04.999Z,99.4
2022-11-21T06:52:21.241Z,99.4
2022-11-21T06:53:37.492Z,99.3
2022-11-21T06:54:52.741Z,99.4
2022-11-21T06:56:08.993Z,99.4
2022-11-21T06:57:25.222Z,99.4
2022-11-21T06:58:41.473Z,99.2
2022-11-21T06:59:57.714Z,99.2
2022-11-21T07:01:13.960Z,99.2
2022-11-21T07:02:30.193Z,99.1
2022-11-21T07:03:46.431Z,99.1
2022-11-21T07:05:02.677Z,99.2
2022-11-21T07:06:18.918Z,99.1
2022-11-21T07:07:35.151Z,99.2
2022-11-21T07:08:51.400Z,99.3
2022-11-21T07:10:07.642Z,99.4
2022-11-21T07:11:22.906Z,99.2
2022-11-21T07:12:39.130Z,99.1
2022-11-21T07:13:55.381Z,99
2022-11-21T07:15:11.615Z,98.8
2022-11-21T07:16:27.855Z,98.8
2022-11-21T07:17:44.105Z,98.8
2022-11-21T07:19:00.351Z,98.8
2022-11-21T07:20:16.590Z,98.8
2022-11-21T07:21:32.817Z,98.8
2022-11-21T07:22:49.077Z,98.8
2022-11-21T07:24:05.306Z,98.8
2022-11-21T07:25:21.540Z,98.8
2022-11-21T07:26:37.795Z,98.8
2022-11-21T07:27:53.060Z,98.8
2022-11-21T07:29:09.281Z,99
2022-11-21T07:30:25.526Z,98.8
2022-11-21T07:31:41.781Z,98.8
2022-11-21T07:32:58.007Z,98.8
2022-11-21T07:34:14.264Z,98.8
2022-11-21T07:35:30.497Z,99
2022-11-21T07:36:46.729Z,98.8
2022-11-21T07:38:02.974Z,98.8
2022-11-21T07:39:19.208Z,98.5
2022-11-21T07:40:35.463Z,98.5
2022-11-21T07:41:51.689Z,98.7
2022-11-21T07:43:07.931Z,98.8
2022-11-21T07:44:23.195Z,98.8
2022-11-21T07:45:39.441Z,98.8
2022-11-21T07:46:55.678Z,99
2022-11-21T07:48:11.925Z,99.1
2022-11-21T07:49:28.155Z,99.1
2022-11-21T07:50:44.404Z,98.8
2022-11-21T07:52:00.648Z,98.8
2022-11-21T07:53:16.881Z,98.8
2022-11-21T07:54:33.121Z,98.7
2022-11-21T07:55:49.367Z,98.7
2022-11-21T07:57:05.610Z,98.7
2022-11-21T07:58:21.848Z,98.7
2022-11-21T07:59:38.084Z,98.3
2022-11-21T08:00:53.342Z,98.3
2022-11-21T08:02:09.580Z,98
2022-11-21T08:03:25.835Z,97.9
2022-11-21T08:04:42.071Z,97.9
2022-11-21T08:05:58.312Z,98
2022-11-21T08:07:14.548Z,97.9
2022-11-21T08:08:30.791Z,97.9
2022-11-21T08:09:47.031Z,97.9
2022-11-21T08:11:03.272Z,97.8
2022-11-21T08:12:19.522Z,97.8
2022-11-21T08:13:35.751Z,97.9
2022-11-21T08:14:51.998Z,97.9
2022-11-21T08:16:08.233Z,97.8
2022-11-21T08:17:23.490Z,98
2022-11-21T08:18:39.731Z,97.9
2022-11-21T08:19:55.983Z,97.8
2022-11-21T08:21:12.214Z,97.8
2022-11-21T08:22:28.455Z,97.8
2022-11-21T08:23:44.699Z,97.8
2022-11-21T08:25:00.940Z,98
2022-11-21T08:26:17.176Z,98
2022-11-21T08:27:33.417Z,98.1
2022-11-21T08:28:49.667Z,98.2
2022-11-21T08:30:05.902Z,98.2
2022-11-21T08:31:22.145Z,98.2
2022-11-21T08:32:38.386Z,98.1
2022-11-21T08:33:53.646Z,98
2022-11-21T08:35:09.882Z,97.7
2022-11-21T08:36:26.122Z,97.8
2022-11-21T08:37:42.373Z,97.7
2022-11-21T08:38:58.603Z,97.7
2022-11-21T08:40:14.854Z,97.5
2022-11-21T08:41:31.086Z,97.5
2022-11-21T08:42:47.332Z,97.6
2022-11-21T08:44:03.572Z,97.7
2022-11-21T08:45:19.806Z,97.3
2022-11-21T08:46:36.059Z,97.5
2022-11-21T08:47:52.293Z,97.3
2022-11-21T08:49:08.000Z,97.1
2022-11-21T08:50:23.791Z,97.1
2022-11-21T08:51:40.029Z,97.1
2022-11-21T08:52:56.269Z,97.1
2022-11-21T08:54:12.514Z,96.8
2022-11-21T08:55:28.758Z,96.8
2022-11-21T08:56:45.003Z,96.8
2022-11-21T08:58:00.266Z,96.8
2022-11-21T08:59:16.507Z,96.9
2022-11-21T09:00:32.737Z,96.8
2022-11-21T09:01:48.977Z,96.8
2022-11-21T09:03:05.228Z,96.8
2022-11-21T09:04:21.464Z,96.8
2022-11-21T09:05:37.702Z,96.7
2022-11-21T09:06:53.948Z,96.5
2022-11-21T09:08:10.187Z,96.5
2022-11-21T09:09:26.431Z,96.4
2022-11-21T09:10:42.676Z,96.3
2022-11-21T09:11:58.908Z,95.9
2022-11-21T09:13:15.161Z,95.4
2022-11-21T09:14:30.419Z,95.2
2022-11-21T09:15:46.644Z,95.3
2022-11-21T09:17:02.892Z,95.2
2022-11-21T09:18:19.130Z,95.3
2022-11-21T09:19:35.373Z,95.4
2022-11-21T09:20:51.610Z,95.7
2022-11-21T09:22:07.856Z,95.5
2022-11-21T09:23:24.099Z,95.4
2022-11-21T09:24:40.336Z,95.3
2022-11-21T09:25:56.587Z,95.1
2022-11-21T09:27:12.814Z,94.9
2022-11-21T09:28:29.065Z,94.7
2022-11-21T09:29:45.310Z,94.4
2022-11-21T09:31:00.552Z,94.3
2022-11-21T09:32:16.807Z,94.4
2022-11-21T09:33:33.049Z,94.4
2022-11-21T09:34:49.274Z,94.5
2022-11-21T09:36:05.532Z,94.4
2022-11-21T09:37:21.759Z,94.1
2022-11-21T09:38:38.014Z,94
2022-11-21T09:39:54.243Z,93.6
2022-11-21T09:41:10.484Z,93.5
2022-11-21T09:42:26.736Z,93.3
2022-11-21T09:43:42.978Z,93.3
2022-11-21T09:44:59.211Z,93.2
2022-11-21T09:46:15.446Z,93.6
2022-11-21T09:47:30.714Z,93.3
2022-11-21T09:48:46.948Z,93.4
2022-11-21T09:50:03.184Z,93.2
2022-11-21T09:51:19.437Z,93.8
2022-11-21T09:52:35.681Z,94
2022-11-21T09:53:51.905Z,94.3
2022-11-21T09:55:08.146Z,94
2022-11-21T09:56:24.391Z,93.8
2022-11-21T09:57:40.630Z,94.1
2022-11-21T09:58:56.885Z,93.9
2022-11-21T10:00:13.116Z,93.9
2022-11-21T10:01:29.365Z,93.8
2022-11-21T10:02:45.608Z,93.7
2022-11-21T10:04:00.857Z,93.8
2022-11-21T10:05:17.093Z,93.6
2022-11-21T10:06:33.335Z,93.2
2022-11-21T10:07:49.579Z,93.5
2022-11-21T10:09:05.827Z,93.6
2022-11-21T10:10:22.058Z,93.2
2022-11-21T10:11:38.299Z,93.7
2022-11-21T10:12:54.538Z,93.9
2022-11-21T10:14:10.786Z,94.2
2022-11-21T10:15:27.026Z,94.2
2022-11-21T10:16:43.264Z,94.3
2022-11-21T10:17:59.516Z,94.3
2022-11-21T10:19:15.751Z,93.8
2022-11-21T10:20:31.007Z,93.7
2022-11-21T10:21:47.254Z,93.7
2022-11-21T10:23:03.487Z,94
2022-11-21T10:24:19.735Z,93.8
2022-11-21T10:25:35.982Z,94.1
2022-11-21T10:26:52.201Z,94
2022-11-21T10:28:08.458Z,94.1
2022-11-21T10:29:24.000Z,94.2
2022-11-21T10:30:40.934Z,94.4
2022-11-21T10:31:57.178Z,93.6
2022-11-21T10:33:13.413Z,94
2022-11-21T10:34:29.656Z,94
2022-11-21T10:35:45.891Z,93.6
2022-11-21T10:37:01.163Z,93.6
2022-11-21T10:38:17.389Z,93.7
2022-11-21T10:39:33.634Z,94.1
2022-11-21T10:40:49.885Z,93.8
2022-11-21T10:42:06.111Z,93.6
2022-11-21T10:43:22.360Z,93.4
2022-11-21T10:44:38.597Z,93.3
2022-11-21T10:45:54.833Z,93.7
2022-11-21T10:47:11.091Z,93.9
2022-11-21T10:48:27.323Z,94
2022-11-21T10:49:43.563Z,93.7
2022-11-21T10:50:59.804Z,93.9
2022-11-21T10:52:16.041Z,93.9
2022-11-21T10:53:31.297Z,93.8
2022-11-21T10:54:47.542Z,93.9
2022-11-21T10:56:03.778Z,93.9
2022-11-21T10:57:20.022Z,94.3
2022-11-21T10:58:36.269Z,94.2
2022-11-21T10:59:52.508Z,93.8
2022-11-21T11:01:08.743Z,93.1
2022-11-21T11:02:24.991Z,93
2022-11-21T11:03:41.223Z,93.1
2022-11-21T11:04:57.476Z,93.1
2022-11-21T11:06:13.711Z,92.7
2022-11-21T11:07:29.951Z,92
2022-11-21T11:08:46.199Z,91.5
2022-11-21T11:10:01.451Z,90.5
2022-11-21T11:11:17.691Z,90.5
2022-11-21T11:12:33.929Z,90.5
2022-11-21T11:13:50.171Z,90.5
2022-11-21T11:15:06.420Z,89.5
2022-11-21T11:16:22.664Z,87.6
2022-11-21T11:17:38.885Z,86.3
2022-11-21T11:18:55.145Z,86.2
2022-11-21T11:20:11.373Z,86
2022-11-21T11:21:27.606Z,85.4
2022-11-21T11:22:43.860Z,85.8
2022-11-21T11:24:00.093Z,86
2022-11-21T11:25:16.341Z,85.8
2022-11-21T11:26:31.599Z,86.6
2022-11-21T11:27:47.831Z,87.8
2022-11-21T11:29:04.084Z,88.4
2022-11-21T11:30:20.327Z,89.2
2022-11-21T11:31:36.553Z,89.7
2022-11-21T11:32:52.789Z,90
2022-11-21T11:34:09.037Z,90
2022-11-21T11:35:25.280Z,90.3
2022-11-21T11:36:41.516Z,90.8
2022-11-21T11:37:57.772Z,90.8
2022-11-21T11:39:14.000Z,91.4
2022-11-21T11:40:30.245Z,91.6
2022-11-21T11:41:46.479Z,91.2
2022-11-21T11:43:01.746Z,91.4
2022-11-21T11:44:17.985Z,91.5
2022-11-21T11:45:34.221Z,91.2
2022-11-21T11:46:50.467Z,91
2022-11-21T11:48:06.701Z,91.3
2022-11-21T11:49:22.959Z,91.5
2022-11-21T11:50:39.183Z,91.7
2022-11-21T11:51:55.429Z,92
2022-11-21T11:53:11.666Z,91.6
2022-11-21T11:54:27.908Z,92.2
2022-11-21T11:55:44.149Z,92.3
2022-11-21T11:57:00.396Z,91.8
2022-11-21T11:58:16.632Z,92.1
2022-11-21T11:59:32.868Z,92
2022-11-21T12:00:48.134Z,92.7
2022-11-21T12:02:04.367Z,93
2022-11-21T12:03:20.607Z,91.9
2022-11-21T12:04:36.842Z,91.8
2022-11-21T12:05:53.090Z,91.8
2022-11-21T12:07:09.329Z,91.8
2022-11-21T12:08:25.577Z,92.3
2022-11-21T12:09:41.807Z,93.1
2022-11-21T12:10:58.054Z,93.3
2022-11-21T12:12:14.301Z,93.4
2022-11-21T12:13:30.000Z,93.4
2022-11-21T12:14:46.772Z,93.6
2022-11-21T12:16:03.022Z,93.8
2022-11-21T12:17:18.267Z,94
2022-11-21T12:18:34.510Z,93.5
2022-11-21T12:19:50.764Z,93
2022-11-21T12:21:07.009Z,92.7
2022-11-21T12:22:23.242Z,92.8
2022-11-21T12:23:39.475Z,93.1
2022-11-21T12:24:55.718Z,93.2
2022-11-21T12:26:11.960Z,93
2022-11-21T12:27:28.200Z,93.1
2022-11-21T12:28:44.440Z,92.7
2022-11-21T12:30:00.679Z,92.8
2022-11-21T12:31:16.921Z,93.1
2022-11-21T12:32:33.162Z,92.6
2022-11-21T12:33:48.424Z,92.5
2022-11-21T12:35:04.657Z,92.7
2022-11-21T12:36:20.899Z,93.1
2022-11-21T12:37:37.138Z,93.6
2022-11-21T12:38:53.389Z,93.7
2022-11-21T12:40:09.633Z,93.8
2022-11-21T12:41:25.861Z,94.1
2022-11-21T12:42:42.112Z,93.9
2022-11-21T12:43:58.342Z,93.8
2022-11-21T12:45:14.591Z,94.2
2022-11-21T12:46:30.829Z,94.5
2022-11-21T12:47:47.075Z,94.8
2022-11-21T12:49:03.317Z,95
2022-11-21T12:50:18.564Z,94.4
2022-11-21T12:51:34.804Z,93.9
2022-11-21T12:52:51.044Z,93.7
2022-11-21T12:54:07.300Z,93.9
2022-11-21T12:55:23.523Z,93.7
2022-11-21T12:56:39.768Z,93.8
2022-11-21T12:57:56.010Z,93.9
2022-11-21T12:59:12.267Z,94
2022-11-21T13:00:28.488Z,93.6
2022-11-21T13:01:44.733Z,94.1
2022-11-21T13:03:00.977Z,94.3
2022-11-21T13:04:17.214Z,94.5
2022-11-21T13:05:33.464Z,94.6
2022-11-21T13:06:48.717Z,94
2022-11-21T13:08:04.960Z,94
2022-11-21T13:09:21.200Z,94.3
2022-11-21T13:10:37.433Z,94.1
2022-11-21T13:11:53.673Z,94.2
2022-11-21T13:13:08.957Z,94.5
2022-11-21T13:14:25.183Z,94.8
2022-11-21T13:15:41.426Z,95.1
2022-11-21T13:16:57.660Z,95.4
2022-11-21T13:18:13.900Z,95.4
2022-11-21T13:19:30.152Z,95.5
2022-11-21T13:20:46.394Z,95.7
2022-11-21T13:22:02.628Z,95.5
2022-11-21T13:23:18.869Z,95.7
2022-11-21T13:24:35.115Z,95.1
2022-11-21T13:25:51.354Z,95.3
2022-11-21T13:27:07.602Z,95.5
2022-11-21T13:28:23.835Z,95.4
2022-11-21T13:29:39.089Z,95
2022-11-21T13:30:55.333Z,95.2
2022-11-21T13:32:11.567Z,95.3
2022-11-21T13:33:27.818Z,95
2022-11-21T13:34:44.000Z,95.2
2022-11-21T13:36:00.290Z,95.4
2022-11-21T13:37:16.526Z,95.5
2022-11-21T13:38:32.775Z,95.4
2022-11-21T13:39:49.015Z,95.3
2022-11-21T13:41:05.256Z,95.3
2022-11-21T13:42:21.493Z,95.2
2022-11-21T13:43:37.749Z,95.2
2022-11-21T13:44:53.977Z,95.4
2022-11-21T13:46:09.246Z,95.7
2022-11-21T13:47:25.488Z,96
2022-11-21T13:48:41.734Z,95.5
2022-11-21T13:49:57.956Z,95.1
2022-11-21T13:51:14.215Z,95.4
2022-11-21T13:52:30.456Z,95.7
2022-11-21T13:53:46.685Z,95.9
2022-11-21T13:55:02.934Z,95.9
2022-11-21T13:56:19.161Z,96.1
2022-11-21T13:57:35.400Z,95.7
2022-11-21T13:58:51.645Z,95.6
2022-11-21T14:00:07.890Z,95.8
2022-11-21T14:01:24.120Z,95.8
2022-11-21T14:02:39.394Z,96
2022-11-21T14:03:55.624Z,96.1
2022-11-21T14:05:11.861Z,96.3
2022-11-21T14:06:28.111Z,96.3
2022-11-21T14:07:44.341Z,96.3
2022-11-21T14:09:00.583Z,96.3
2022-11-21T14:10:16.831Z,95.8
2022-11-21T14:11:33.000Z,95.7
2022-11-21T14:12:49.306Z,96
2022-11-21T14:14:05.557Z,96.2
2022-11-21T14:15:21.796Z,95.9
2022-11-21T14:16:38.033Z,95.3
2022-11-21T14:17:54.276Z,95.3
2022-11-21T14:19:09.531Z,95.1
2022-11-21T14:20:25.775Z,95.2
2022-11-21T14:21:42.006Z,95.3
2022-11-21T14:22:58.262Z,95.6
2022-11-21T14:24:14.492Z,95.6
2022-11-21T14:25:30.743Z,95.6
2022-11-21T14:26:46.979Z,95.7
2022-11-21T14:28:03.228Z,95.7
2022-11-21T14:29:19.463Z,95.6
2022-11-21T14:30:35.697Z,95.6
2022-11-21T14:31:51.938Z,95.7
2022-11-21T14:33:08.183Z,95.9
2022-11-21T14:34:24.436Z,96
2022-11-21T14:35:39.675Z,96.1
2022-11-21T14:36:55.922Z,96.3
2022-11-21T14:38:12.161Z,96.3
2022-11-21T14:39:28.404Z,96.3
2022-11-21T14:40:44.657Z,96
2022-11-21T14:42:00.879Z,96.1
2022-11-21T14:43:17.120Z,96
2022-11-21T14:44:33.361Z,96.3
2022-11-21T14:45:49.604Z,96.3
2022-11-21T14:47:05.847Z,96.3
2022-11-21T14:48:22.093Z,96.6
2022-11-21T14:49:38.330Z,96.5
2022-11-21T14:50:54.568Z,96.1
2022-11-21T14:52:09.827Z,96.1
2022-11-21T14:53:26.071Z,95.7
2022-11-21T14:54:42.310Z,95.6
2022-11-21T14:55:58.557Z,95.6
2022-11-21T14:57:14.787Z,95.5
2022-11-21T14:58:31.036Z,95.7
2022-11-21T14:59:47.269Z,95.9
2022-11-21T15:01:03.517Z,96.1
2022-11-21T15:02:19.758Z,96
2022-11-21T15:03:35.995Z,96
2022-11-21T15:04:52.238Z,96
2022-11-21T15:06:08.481Z,96.2
2022-11-21T15:07:24.719Z,96.5
2022-11-21T15:08:39.982Z,96.6
2022-11-21T15:09:56.218Z,96.6
2022-11-21T15:12:28.701Z,96.7
2022-11-21T15:13:44.942Z,96.7
2022-11-21T15:15:01.191Z,96.7
2022-11-21T15:16:17.423Z,96.6
2022-11-21T15:17:33.667Z,96.5
2022-11-21T15:18:49.906Z,96.4
2022-11-21T15:20:06.143Z,96.5
2022-11-21T15:21:22.391Z,96.6
2022-11-21T15:22:38.636Z,96.7
2022-11-21T15:23:54.878Z,96.8
2022-11-21T15:25:10.125Z,96.9
2022-11-21T15:26:26.375Z,96.9
2022-11-21T15:27:42.607Z,96.9
2022-11-21T15:28:58.848Z,97
2022-11-21T15:30:15.087Z,97
2022-11-21T15:31:31.330Z,97
2022-11-21T15:32:47.569Z,97
2022-11-21T15:34:03.814Z,97
2022-11-21T15:35:20.053Z,97.1
2022-11-21T15:36:36.296Z,97
2022-11-21T15:37:52.528Z,96.7
2022-11-21T15:39:08.786Z,96.6
2022-11-21T15:40:25.016Z,96.7
2022-11-21T15:41:40.269Z,96.8
2022-11-21T15:42:56.563Z,96.8
2022-11-21T15:44:12.870Z,96.6
2022-11-21T15:45:29.156Z,96.5
2022-11-21T15:46:45.453Z,96.6
2022-11-21T15:48:01.751Z,96.6
2022-11-21T15:49:18.047Z,96.7
2022-11-21T15:50:34.346Z,96.6
2022-11-21T15:51:50.632Z,96.6
2022-11-21T15:53:06.938Z,96.6
2022-11-21T15:54:23.232Z,96.6
2022-11-21T15:55:39.522Z,96.7
2022-11-21T15:56:55.821Z,96.8
2022-11-21T15:58:11.120Z,96.8
2022-11-21T15:59:27.417Z,96.8
2022-11-21T16:00:43.730Z,96.8
2022-11-21T16:02:00.010Z,96.8
2022-11-21T16:03:16.306Z,96.9
2022-11-21T16:04:32.612Z,96.9
2022-11-21T16:05:48.900Z,96.8
2022-11-21T16:07:05.190Z,96.9
2022-11-21T16:08:21.486Z,97
2022-11-21T16:09:37.781Z,97
2022-11-21T16:10:54.086Z,97
2022-11-21T16:12:10.372Z,97
2022-11-21T16:13:26.676Z,97.1
2022-11-21T16:14:41.976Z,97.2
2022-11-21T16:15:58.275Z,97.1
2022-11-21T16:17:14.562Z,97
2022-11-21T16:18:30.876Z,97
2022-11-21T16:19:47.161Z,97
2022-11-21T16:21:03.458Z,96.9
2022-11-21T16:22:19.745Z,96.9
2022-11-21T16:23:36.037Z,96.9
2022-11-21T16:24:52.336Z,96.9
2022-11-21T16:26:08.636Z,97
2022-11-21T16:27:24.939Z,97.1
2022-11-21T16:28:41.227Z,97.2
2022-11-21T16:29:57.516Z,97.2
2022-11-21T16:31:12.828Z,97.3
2022-11-21T16:32:29.132Z,97.2
2022-11-21T16:33:45.417Z,97.3
2022-11-21T16:36:18.016Z,97.3
2022-11-21T16:37:34.310Z,97.3
2022-11-21T16:38:50.609Z,97.3
2022-11-21T16:40:06.896Z,97.4
2022-11-21T16:41:23.186Z,97.3
2022-11-21T16:42:39.493Z,97.1
2022-11-21T16:43:55.777Z,97
2022-11-21T16:45:12.070Z,97
2022-11-21T16:46:28.368Z,97.1
2022-11-21T16:47:43.684Z,97.2
2022-11-21T16:48:59.973Z,97.2
2022-11-21T16:50:16.275Z,97.3
2022-11-21T16:51:32.573Z,97.4
2022-11-21T16:52:48.861Z,97.5
2022-11-21T16:54:05.153Z,97.5
2022-11-21T16:55:21.457Z,97.6
2022-11-21T16:56:37.758Z,97.6
2022-11-21T16:57:54.042Z,97.8
2022-11-21T16:59:10.334Z,97.9
2022-11-21T17:00:26.628Z,98
2022-11-21T17:01:42.927Z,98.1
2022-11-21T17:02:59.216Z,98.1
2022-11-21T17:04:14.532Z,98.1
2022-11-21T17:06:47.129Z,98.3
2022-11-21T17:08:03.422Z,98.5